sensor_id;sensor_type;location;lat;lon;timestamp;P1;durP1;ratioP1;P2;durP2;ratioP2
50281;SDS011;36176;51.506;10.272;2023-10-19T00:01:57;32.10;;;28.70;;
50281;SDS011;36176;51.506;10.272;2023-10-19T00:04:25;32.20;;;28.77;;
50281;SDS011;36176;51.506;10.272;2023-10-19T00:06:52;33.87;;;30.27;;
50281;SDS011;36176;51.506;10.272;2023-10-19T00:09:19;34.60;;;31.10;;
50281;SDS011;36176;51.506;10.272;2023-10-19T00:11:46;35.30;;;31.60;;
50281;SDS011;36176;51.506;10.272;2023-10-19T00:14:13;37.23;;;32.90;;
50281;SDS011;36176;51.506;10.272;2023-10-19T00:16:44;40.03;;;35.63;;
50281;SDS011;36176;51.506;10.272;2023-10-19T00:19:12;36.23;;;32.43;;
50281;SDS011;36176;51.506;10.272;2023-10-19T00:21:39;35.87;;;32.27;;
50281;SDS011;36176;51.506;10.272;2023-10-19T00:24:06;50.37;;;40.40;;
50281;SDS011;36176;51.506;10.272;2023-10-19T00:26:33;44.70;;;38.63;;
50281;SDS011;36176;51.506;10.272;2023-10-19T00:29:00;34.83;;;31.13;;
50281;SDS011;36176;51.506;10.272;2023-10-19T00:31:27;39.83;;;35.60;;
50281;SDS011;36176;51.506;10.272;2023-10-19T00:33:55;36.30;;;32.47;;
50281;SDS011;36176;51.506;10.272;2023-10-19T00:36:22;37.70;;;32.10;;
50281;SDS011;36176;51.506;10.272;2023-10-19T00:38:50;38.80;;;33.40;;
50281;SDS011;36176;51.506;10.272;2023-10-19T00:41:18;38.27;;;34.13;;
50281;SDS011;36176;51.506;10.272;2023-10-19T00:43:48;38.50;;;34.50;;
50281;SDS011;36176;51.506;10.272;2023-10-19T00:46:16;40.33;;;35.60;;
50281;SDS011;36176;51.506;10.272;2023-10-19T00:48:45;39.43;;;34.07;;
50281;SDS011;36176;51.506;10.272;2023-10-19T00:51:16;39.57;;;35.37;;
50281;SDS011;36176;51.506;10.272;2023-10-19T00:53:44;37.70;;;33.70;;
50281;SDS011;36176;51.506;10.272;2023-10-19T00:56:11;37.70;;;33.60;;
50281;SDS011;36176;51.506;10.272;2023-10-19T00:58:39;37.93;;;33.97;;
50281;SDS011;36176;51.506;10.272;2023-10-19T01:01:06;38.07;;;33.97;;
50281;SDS011;36176;51.506;10.272;2023-10-19T01:03:33;44.27;;;38.27;;
50281;SDS011;36176;51.506;10.272;2023-10-19T01:06:01;38.20;;;34.10;;
50281;SDS011;36176;51.506;10.272;2023-10-19T01:08:29;40.83;;;36.53;;
50281;SDS011;36176;51.506;10.272;2023-10-19T01:10:56;39.63;;;35.43;;
50281;SDS011;36176;51.506;10.272;2023-10-19T01:13:23;36.40;;;32.37;;
50281;SDS011;36176;51.506;10.272;2023-10-19T01:15:50;41.83;;;37.37;;
50281;SDS011;36176;51.506;10.272;2023-10-19T01:18:17;34.60;;;30.97;;
50281;SDS011;36176;51.506;10.272;2023-10-19T01:20:44;41.17;;;36.67;;
50281;SDS011;36176;51.506;10.272;2023-10-19T01:23:11;37.10;;;33.10;;
50281;SDS011;36176;51.506;10.272;2023-10-19T01:28:08;44.20;;;36.83;;
50281;SDS011;36176;51.506;10.272;2023-10-19T01:30:37;43.33;;;36.83;;
50281;SDS011;36176;51.506;10.272;2023-10-19T01:33:04;37.77;;;33.77;;
50281;SDS011;36176;51.506;10.272;2023-10-19T01:35:32;51.87;;;41.97;;
50281;SDS011;36176;51.506;10.272;2023-10-19T01:37:59;45.73;;;39.00;;
50281;SDS011;36176;51.506;10.272;2023-10-19T01:40:26;51.90;;;41.40;;
50281;SDS011;36176;51.506;10.272;2023-10-19T01:42:53;42.23;;;36.50;;
50281;SDS011;36176;51.506;10.272;2023-10-19T01:45:20;39.20;;;35.03;;
50281;SDS011;36176;51.506;10.272;2023-10-19T01:47:47;41.33;;;36.37;;
50281;SDS011;36176;51.506;10.272;2023-10-19T01:50:15;37.40;;;33.50;;
50281;SDS011;36176;51.506;10.272;2023-10-19T01:52:42;36.17;;;32.37;;
50281;SDS011;36176;51.506;10.272;2023-10-19T01:55:09;36.40;;;32.70;;
50281;SDS011;36176;51.506;10.272;2023-10-19T01:57:36;35.63;;;31.83;;
50281;SDS011;36176;51.506;10.272;2023-10-19T02:00:03;36.53;;;32.73;;
50281;SDS011;36176;51.506;10.272;2023-10-19T02:02:31;37.23;;;33.27;;
50281;SDS011;36176;51.506;10.272;2023-10-19T02:04:58;36.33;;;32.37;;
50281;SDS011;36176;51.506;10.272;2023-10-19T02:07:25;34.40;;;30.77;;
50281;SDS011;36176;51.506;10.272;2023-10-19T02:09:52;34.33;;;30.63;;
50281;SDS011;36176;51.506;10.272;2023-10-19T02:12:19;33.27;;;29.77;;
50281;SDS011;36176;51.506;10.272;2023-10-19T02:14:46;39.17;;;34.97;;
50281;SDS011;36176;51.506;10.272;2023-10-19T02:17:14;44.07;;;37.73;;
50281;SDS011;36176;51.506;10.272;2023-10-19T02:19:41;56.97;;;43.67;;
50281;SDS011;36176;51.506;10.272;2023-10-19T02:22:08;34.93;;;31.33;;
50281;SDS011;36176;51.506;10.272;2023-10-19T02:24:36;36.03;;;32.23;;
50281;SDS011;36176;51.506;10.272;2023-10-19T02:27:02;37.73;;;33.70;;
50281;SDS011;36176;51.506;10.272;2023-10-19T02:29:30;38.27;;;34.20;;
50281;SDS011;36176;51.506;10.272;2023-10-19T02:31:57;37.27;;;33.27;;
50281;SDS011;36176;51.506;10.272;2023-10-19T02:34:24;39.53;;;35.23;;
50281;SDS011;36176;51.506;10.272;2023-10-19T02:36:51;44.73;;;36.40;;
50281;SDS011;36176;51.506;10.272;2023-10-19T02:39:19;38.97;;;34.23;;
50281;SDS011;36176;51.506;10.272;2023-10-19T02:41:47;33.63;;;30.10;;
50281;SDS011;36176;51.506;10.272;2023-10-19T02:44:16;31.30;;;28.00;;
50281;SDS011;36176;51.506;10.272;2023-10-19T02:46:45;34.93;;;31.13;;
50281;SDS011;36176;51.506;10.272;2023-10-19T02:49:13;31.07;;;27.77;;
50281;SDS011;36176;51.506;10.272;2023-10-19T02:51:42;31.30;;;28.07;;
50281;SDS011;36176;51.506;10.272;2023-10-19T02:54:09;34.20;;;29.87;;
50281;SDS011;36176;51.506;10.272;2023-10-19T02:56:38;36.20;;;30.73;;
50281;SDS011;36176;51.506;10.272;2023-10-19T02:59:05;26.47;;;23.77;;
50281;SDS011;36176;51.506;10.272;2023-10-19T03:01:32;28.37;;;24.83;;
50281;SDS011;36176;51.506;10.272;2023-10-19T03:04:00;19.60;;;17.70;;
50281;SDS011;36176;51.506;10.272;2023-10-19T03:06:28;20.27;;;18.20;;
50281;SDS011;36176;51.506;10.272;2023-10-19T03:08:56;19.20;;;17.30;;
50281;SDS011;36176;51.506;10.272;2023-10-19T03:11:24;20.60;;;18.53;;
50281;SDS011;36176;51.506;10.272;2023-10-19T03:13:51;17.27;;;15.50;;
50281;SDS011;36176;51.506;10.272;2023-10-19T03:16:18;27.77;;;23.37;;
50281;SDS011;36176;51.506;10.272;2023-10-19T03:18:46;20.47;;;18.30;;
50281;SDS011;36176;51.506;10.272;2023-10-19T03:21:13;19.70;;;17.80;;
50281;SDS011;36176;51.506;10.272;2023-10-19T03:23:40;17.40;;;15.73;;
50281;SDS011;36176;51.506;10.272;2023-10-19T03:26:07;14.73;;;13.43;;
50281;SDS011;36176;51.506;10.272;2023-10-19T03:28:34;17.90;;;16.20;;
50281;SDS011;36176;51.506;10.272;2023-10-19T03:31:02;15.20;;;13.70;;
50281;SDS011;36176;51.506;10.272;2023-10-19T03:33:29;14.07;;;12.70;;
50281;SDS011;36176;51.506;10.272;2023-10-19T03:35:56;14.70;;;13.40;;
50281;SDS011;36176;51.506;10.272;2023-10-19T03:38:23;17.67;;;15.97;;
50281;SDS011;36176;51.506;10.272;2023-10-19T03:40:50;17.57;;;15.93;;
50281;SDS011;36176;51.506;10.272;2023-10-19T03:43:19;15.40;;;14.00;;
50281;SDS011;36176;51.506;10.272;2023-10-19T03:45:46;13.63;;;12.37;;
50281;SDS011;36176;51.506;10.272;2023-10-19T03:48:13;15.87;;;14.40;;
50281;SDS011;36176;51.506;10.272;2023-10-19T03:50:40;17.63;;;15.83;;
50281;SDS011;36176;51.506;10.272;2023-10-19T03:53:08;13.87;;;12.63;;
50281;SDS011;36176;51.506;10.272;2023-10-19T03:55:35;14.37;;;12.97;;
50281;SDS011;36176;51.506;10.272;2023-10-19T03:58:03;13.83;;;12.57;;
50281;SDS011;36176;51.506;10.272;2023-10-19T04:00:30;17.83;;;16.03;;
50281;SDS011;36176;51.506;10.272;2023-10-19T04:02:57;14.30;;;13.00;;
50281;SDS011;36176;51.506;10.272;2023-10-19T04:05:24;14.80;;;13.40;;
50281;SDS011;36176;51.506;10.272;2023-10-19T04:07:52;12.63;;;11.47;;
50281;SDS011;36176;51.506;10.272;2023-10-19T04:10:19;15.10;;;13.63;;
50281;SDS011;36176;51.506;10.272;2023-10-19T04:12:46;16.03;;;14.50;;
50281;SDS011;36176;51.506;10.272;2023-10-19T04:15:13;16.93;;;15.33;;
50281;SDS011;36176;51.506;10.272;2023-10-19T04:17:40;18.90;;;17.17;;
50281;SDS011;36176;51.506;10.272;2023-10-19T04:20:08;14.43;;;13.13;;
50281;SDS011;36176;51.506;10.272;2023-10-19T04:22:36;15.07;;;13.60;;
50281;SDS011;36176;51.506;10.272;2023-10-19T04:25:03;13.47;;;12.30;;
50281;SDS011;36176;51.506;10.272;2023-10-19T04:27:31;12.83;;;11.73;;
50281;SDS011;36176;51.506;10.272;2023-10-19T04:29:58;18.00;;;16.20;;
50281;SDS011;36176;51.506;10.272;2023-10-19T04:32:25;20.60;;;18.60;;
50281;SDS011;36176;51.506;10.272;2023-10-19T04:34:53;18.93;;;17.10;;
50281;SDS011;36176;51.506;10.272;2023-10-19T04:37:20;15.90;;;14.50;;
50281;SDS011;36176;51.506;10.272;2023-10-19T04:39:47;15.33;;;13.93;;
50281;SDS011;36176;51.506;10.272;2023-10-19T04:42:14;19.63;;;17.83;;
50281;SDS011;36176;51.506;10.272;2023-10-19T04:44:41;20.33;;;18.33;;
50281;SDS011;36176;51.506;10.272;2023-10-19T04:47:08;18.73;;;16.97;;
50281;SDS011;36176;51.506;10.272;2023-10-19T04:49:35;14.87;;;13.57;;
50281;SDS011;36176;51.506;10.272;2023-10-19T04:52:02;18.33;;;16.53;;
50281;SDS011;36176;51.506;10.272;2023-10-19T04:54:29;14.27;;;13.07;;
50281;SDS011;36176;51.506;10.272;2023-10-19T04:56:57;16.00;;;14.50;;
50281;SDS011;36176;51.506;10.272;2023-10-19T04:59:24;16.30;;;14.70;;
50281;SDS011;36176;51.506;10.272;2023-10-19T05:01:51;18.27;;;16.53;;
50281;SDS011;36176;51.506;10.272;2023-10-19T05:04:18;19.00;;;17.20;;
50281;SDS011;36176;51.506;10.272;2023-10-19T05:06:45;16.53;;;15.03;;
50281;SDS011;36176;51.506;10.272;2023-10-19T05:09:12;18.87;;;17.03;;
50281;SDS011;36176;51.506;10.272;2023-10-19T05:11:39;17.97;;;16.17;;
50281;SDS011;36176;51.506;10.272;2023-10-19T05:14:06;19.40;;;17.47;;
50281;SDS011;36176;51.506;10.272;2023-10-19T05:16:34;20.47;;;18.33;;
50281;SDS011;36176;51.506;10.272;2023-10-19T05:19:01;17.27;;;15.50;;
50281;SDS011;36176;51.506;10.272;2023-10-19T05:21:28;24.17;;;21.50;;
50281;SDS011;36176;51.506;10.272;2023-10-19T05:23:55;20.17;;;18.27;;
50281;SDS011;36176;51.506;10.272;2023-10-19T05:26:22;18.43;;;16.67;;
50281;SDS011;36176;51.506;10.272;2023-10-19T05:28:49;18.33;;;16.60;;
50281;SDS011;36176;51.506;10.272;2023-10-19T05:31:16;14.17;;;12.97;;
50281;SDS011;36176;51.506;10.272;2023-10-19T05:33:43;12.87;;;11.67;;
50281;SDS011;36176;51.506;10.272;2023-10-19T05:36:10;25.63;;;20.87;;
50281;SDS011;36176;51.506;10.272;2023-10-19T05:38:37;17.73;;;16.07;;
50281;SDS011;36176;51.506;10.272;2023-10-19T05:41:04;14.60;;;13.30;;
50281;SDS011;36176;51.506;10.272;2023-10-19T05:43:31;13.60;;;12.40;;
50281;SDS011;36176;51.506;10.272;2023-10-19T05:45:58;15.37;;;14.07;;
50281;SDS011;36176;51.506;10.272;2023-10-19T05:48:26;18.83;;;16.87;;
50281;SDS011;36176;51.506;10.272;2023-10-19T05:50:53;16.80;;;15.20;;
50281;SDS011;36176;51.506;10.272;2023-10-19T05:53:20;11.93;;;10.93;;
50281;SDS011;36176;51.506;10.272;2023-10-19T05:55:47;13.13;;;11.90;;
50281;SDS011;36176;51.506;10.272;2023-10-19T05:58:15;10.80;;;9.80;;
50281;SDS011;36176;51.506;10.272;2023-10-19T06:00:42;15.77;;;14.37;;
50281;SDS011;36176;51.506;10.272;2023-10-19T06:03:09;16.20;;;14.60;;
50281;SDS011;36176;51.506;10.272;2023-10-19T06:05:37;13.43;;;12.33;;
50281;SDS011;36176;51.506;10.272;2023-10-19T06:08:04;15.27;;;13.73;;
50281;SDS011;36176;51.506;10.272;2023-10-19T06:10:31;11.23;;;10.30;;
50281;SDS011;36176;51.506;10.272;2023-10-19T06:12:58;16.17;;;14.60;;
50281;SDS011;36176;51.506;10.272;2023-10-19T06:15:25;16.07;;;14.53;;
50281;SDS011;36176;51.506;10.272;2023-10-19T06:17:53;13.57;;;12.27;;
50281;SDS011;36176;51.506;10.272;2023-10-19T06:20:20;12.60;;;11.50;;
50281;SDS011;36176;51.506;10.272;2023-10-19T06:22:47;20.27;;;18.27;;
50281;SDS011;36176;51.506;10.272;2023-10-19T06:25:14;11.67;;;10.73;;
50281;SDS011;36176;51.506;10.272;2023-10-19T06:27:42;18.33;;;16.27;;
50281;SDS011;36176;51.506;10.272;2023-10-19T06:30:09;18.77;;;16.87;;
50281;SDS011;36176;51.506;10.272;2023-10-19T06:32:36;13.40;;;12.27;;
50281;SDS011;36176;51.506;10.272;2023-10-19T06:35:04;10.33;;;9.43;;
50281;SDS011;36176;51.506;10.272;2023-10-19T06:37:31;12.23;;;11.13;;
50281;SDS011;36176;51.506;10.272;2023-10-19T06:39:58;11.53;;;10.53;;
50281;SDS011;36176;51.506;10.272;2023-10-19T06:42:25;11.07;;;10.07;;
50281;SDS011;36176;51.506;10.272;2023-10-19T06:44:53;13.13;;;11.97;;
50281;SDS011;36176;51.506;10.272;2023-10-19T06:47:20;17.90;;;16.10;;
50281;SDS011;36176;51.506;10.272;2023-10-19T06:49:47;13.23;;;11.93;;
50281;SDS011;36176;51.506;10.272;2023-10-19T06:52:14;12.60;;;11.40;;
50281;SDS011;36176;51.506;10.272;2023-10-19T06:54:41;12.87;;;11.67;;
50281;SDS011;36176;51.506;10.272;2023-10-19T06:57:08;14.43;;;13.03;;
50281;SDS011;36176;51.506;10.272;2023-10-19T06:59:37;12.73;;;11.43;;
50281;SDS011;36176;51.506;10.272;2023-10-19T07:02:04;13.50;;;12.20;;
50281;SDS011;36176;51.506;10.272;2023-10-19T07:04:31;12.67;;;11.50;;
50281;SDS011;36176;51.506;10.272;2023-10-19T07:06:58;14.20;;;12.63;;
50281;SDS011;36176;51.506;10.272;2023-10-19T07:09:26;13.80;;;12.40;;
50281;SDS011;36176;51.506;10.272;2023-10-19T07:11:53;13.20;;;11.90;;
50281;SDS011;36176;51.506;10.272;2023-10-19T07:14:20;14.53;;;13.13;;
50281;SDS011;36176;51.506;10.272;2023-10-19T07:16:48;11.37;;;10.30;;
50281;SDS011;36176;51.506;10.272;2023-10-19T07:19:16;13.63;;;12.33;;
50281;SDS011;36176;51.506;10.272;2023-10-19T07:21:44;12.77;;;11.57;;
50281;SDS011;36176;51.506;10.272;2023-10-19T07:24:11;12.00;;;10.80;;
50281;SDS011;36176;51.506;10.272;2023-10-19T07:26:38;13.20;;;11.83;;
50281;SDS011;36176;51.506;10.272;2023-10-19T07:29:05;13.17;;;11.97;;
50281;SDS011;36176;51.506;10.272;2023-10-19T07:31:32;13.63;;;12.33;;
50281;SDS011;36176;51.506;10.272;2023-10-19T07:34:00;13.87;;;12.57;;
50281;SDS011;36176;51.506;10.272;2023-10-19T07:36:27;15.13;;;13.33;;
50281;SDS011;36176;51.506;10.272;2023-10-19T07:38:54;12.93;;;11.67;;
50281;SDS011;36176;51.506;10.272;2023-10-19T07:41:21;12.70;;;11.60;;
50281;SDS011;36176;51.506;10.272;2023-10-19T07:43:48;13.87;;;12.57;;
50281;SDS011;36176;51.506;10.272;2023-10-19T07:46:16;15.07;;;13.27;;
50281;SDS011;36176;51.506;10.272;2023-10-19T07:48:43;16.63;;;12.00;;
50281;SDS011;36176;51.506;10.272;2023-10-19T07:51:10;16.97;;;14.47;;
50281;SDS011;36176;51.506;10.272;2023-10-19T07:53:37;13.60;;;12.17;;
50281;SDS011;36176;51.506;10.272;2023-10-19T07:56:04;20.03;;;16.37;;
50281;SDS011;36176;51.506;10.272;2023-10-19T07:58:31;12.43;;;11.23;;
50281;SDS011;36176;51.506;10.272;2023-10-19T08:00:58;14.53;;;13.03;;
50281;SDS011;36176;51.506;10.272;2023-10-19T08:03:25;14.27;;;12.87;;
50281;SDS011;36176;51.506;10.272;2023-10-19T08:05:53;14.73;;;13.17;;
50281;SDS011;36176;51.506;10.272;2023-10-19T08:08:20;11.53;;;10.43;;
50281;SDS011;36176;51.506;10.272;2023-10-19T08:10:47;17.97;;;15.97;;
50281;SDS011;36176;51.506;10.272;2023-10-19T08:13:14;17.63;;;15.80;;
50281;SDS011;36176;51.506;10.272;2023-10-19T08:15:41;15.20;;;13.67;;
50281;SDS011;36176;51.506;10.272;2023-10-19T08:18:08;26.47;;;12.47;;
50281;SDS011;36176;51.506;10.272;2023-10-19T08:20:35;13.47;;;12.13;;
50281;SDS011;36176;51.506;10.272;2023-10-19T08:23:02;10.40;;;9.47;;
50281;SDS011;36176;51.506;10.272;2023-10-19T08:25:30;11.80;;;10.70;;
50281;SDS011;36176;51.506;10.272;2023-10-19T08:28:17;10.90;;;9.80;;
50281;SDS011;36176;51.506;10.272;2023-10-19T08:30:44;10.37;;;9.37;;
50281;SDS011;36176;51.506;10.272;2023-10-19T08:33:11;12.63;;;11.43;;
50281;SDS011;36176;51.506;10.272;2023-10-19T08:35:39;12.70;;;11.50;;
50281;SDS011;36176;51.506;10.272;2023-10-19T08:38:06;10.93;;;9.93;;
50281;SDS011;36176;51.506;10.272;2023-10-19T08:40:33;10.80;;;9.80;;
50281;SDS011;36176;51.506;10.272;2023-10-19T08:43:00;13.17;;;11.97;;
50281;SDS011;36176;51.506;10.272;2023-10-19T08:45:27;12.53;;;11.33;;
50281;SDS011;36176;51.506;10.272;2023-10-19T08:47:56;12.10;;;11.00;;
50281;SDS011;36176;51.506;10.272;2023-10-19T08:50:25;13.93;;;12.53;;
50281;SDS011;36176;51.506;10.272;2023-10-19T08:52:57;12.90;;;11.70;;
50281;SDS011;36176;51.506;10.272;2023-10-19T08:55:28;13.23;;;11.93;;
50281;SDS011;36176;51.506;10.272;2023-10-19T08:58:15;12.97;;;11.67;;
50281;SDS011;36176;51.506;10.272;2023-10-19T09:00:44;13.77;;;12.47;;
50281;SDS011;36176;51.506;10.272;2023-10-19T09:03:14;12.73;;;11.43;;
50281;SDS011;36176;51.506;10.272;2023-10-19T09:05:42;12.73;;;11.57;;
50281;SDS011;36176;51.506;10.272;2023-10-19T09:08:13;12.87;;;11.67;;
50281;SDS011;36176;51.506;10.272;2023-10-19T09:10:42;13.87;;;12.50;;
50281;SDS011;36176;51.506;10.272;2023-10-19T09:13:10;12.47;;;11.37;;
50281;SDS011;36176;51.506;10.272;2023-10-19T09:15:38;11.83;;;10.73;;
50281;SDS011;36176;51.506;10.272;2023-10-19T09:18:16;14.17;;;12.77;;
50281;SDS011;36176;51.506;10.272;2023-10-19T09:20:51;11.67;;;10.57;;
50281;SDS011;36176;51.506;10.272;2023-10-19T09:23:20;16.93;;;15.13;;
50281;SDS011;36176;51.506;10.272;2023-10-19T09:25:49;13.43;;;12.10;;
50281;SDS011;36176;51.506;10.272;2023-10-19T09:28:17;11.37;;;10.17;;
50281;SDS011;36176;51.506;10.272;2023-10-19T09:30:44;12.60;;;11.40;;
50281;SDS011;36176;51.506;10.272;2023-10-19T09:33:13;12.03;;;10.83;;
50281;SDS011;36176;51.506;10.272;2023-10-19T09:35:40;13.03;;;11.77;;
50281;SDS011;36176;51.506;10.272;2023-10-19T09:38:07;13.20;;;11.87;;
50281;SDS011;36176;51.506;10.272;2023-10-19T09:40:34;13.60;;;12.30;;
50281;SDS011;36176;51.506;10.272;2023-10-19T09:43:04;14.80;;;13.30;;
50281;SDS011;36176;51.506;10.272;2023-10-19T09:45:35;13.80;;;12.40;;
50281;SDS011;36176;51.506;10.272;2023-10-19T09:48:08;13.33;;;12.07;;
50281;SDS011;36176;51.506;10.272;2023-10-19T09:50:35;14.83;;;13.13;;
50281;SDS011;36176;51.506;10.272;2023-10-19T09:53:02;14.37;;;12.97;;
50281;SDS011;36176;51.506;10.272;2023-10-19T09:58:02;14.67;;;13.13;;
50281;SDS011;36176;51.506;10.272;2023-10-19T10:00:36;21.87;;;18.03;;
50281;SDS011;36176;51.506;10.272;2023-10-19T10:03:03;15.80;;;14.07;;
50281;SDS011;36176;51.506;10.272;2023-10-19T10:08:31;18.50;;;15.97;;
50281;SDS011;36176;51.506;10.272;2023-10-19T10:10:57;13.77;;;12.47;;
50281;SDS011;36176;51.506;10.272;2023-10-19T10:15:52;16.67;;;14.57;;
50281;SDS011;36176;51.506;10.272;2023-10-19T10:18:21;21.90;;;17.57;;
50281;SDS011;36176;51.506;10.272;2023-10-19T10:21:26;18.33;;;16.43;;
50281;SDS011;36176;51.506;10.272;2023-10-19T10:23:51;26.57;;;14.40;;
50281;SDS011;36176;51.506;10.272;2023-10-19T10:26:29;23.10;;;17.97;;
50281;SDS011;36176;51.506;10.272;2023-10-19T10:29:07;17.00;;;15.37;;
50281;SDS011;36176;51.506;10.272;2023-10-19T10:31:40;27.13;;;21.87;;
50281;SDS011;36176;51.506;10.272;2023-10-19T10:34:09;20.53;;;18.33;;
50281;SDS011;36176;51.506;10.272;2023-10-19T10:39:25;34.40;;;25.37;;
50281;SDS011;36176;51.506;10.272;2023-10-19T10:41:56;16.63;;;15.07;;
50281;SDS011;36176;51.506;10.272;2023-10-19T10:47:25;15.53;;;14.00;;
50281;SDS011;36176;51.506;10.272;2023-10-19T10:49:53;17.97;;;16.20;;
50281;SDS011;36176;51.506;10.272;2023-10-19T10:54:51;15.53;;;13.93;;
50281;SDS011;36176;51.506;10.272;2023-10-19T10:57:19;13.67;;;12.37;;
50281;SDS011;36176;51.506;10.272;2023-10-19T10:59:46;14.70;;;13.30;;
50281;SDS011;36176;51.506;10.272;2023-10-19T11:02:17;11.20;;;10.20;;
50281;SDS011;36176;51.506;10.272;2023-10-19T11:04:45;11.63;;;10.57;;
50281;SDS011;36176;51.506;10.272;2023-10-19T11:07:19;12.10;;;11.00;;
50281;SDS011;36176;51.506;10.272;2023-10-19T11:09:46;9.77;;;8.90;;
50281;SDS011;36176;51.506;10.272;2023-10-19T11:12:14;9.67;;;8.87;;
50281;SDS011;36176;51.506;10.272;2023-10-19T11:14:57;10.53;;;9.53;;
50281;SDS011;36176;51.506;10.272;2023-10-19T11:17:28;9.43;;;8.63;;
50281;SDS011;36176;51.506;10.272;2023-10-19T11:19:59;9.53;;;8.73;;
50281;SDS011;36176;51.506;10.272;2023-10-19T11:22:26;8.67;;;7.87;;
50281;SDS011;36176;51.506;10.272;2023-10-19T11:24:53;8.07;;;7.37;;
50281;SDS011;36176;51.506;10.272;2023-10-19T11:27:28;8.87;;;8.10;;
50281;SDS011;36176;51.506;10.272;2023-10-19T11:29:58;9.47;;;8.67;;
50281;SDS011;36176;51.506;10.272;2023-10-19T11:32:35;7.83;;;7.23;;
50281;SDS011;36176;51.506;10.272;2023-10-19T11:35:03;7.57;;;6.97;;
50281;SDS011;36176;51.506;10.272;2023-10-19T11:37:44;8.77;;;7.97;;
50281;SDS011;36176;51.506;10.272;2023-10-19T11:40:12;7.70;;;7.00;;
50281;SDS011;36176;51.506;10.272;2023-10-19T11:42:39;7.37;;;6.70;;
50281;SDS011;36176;51.506;10.272;2023-10-19T11:45:06;8.07;;;7.37;;
50281;SDS011;36176;51.506;10.272;2023-10-19T11:47:34;7.00;;;6.40;;
50281;SDS011;36176;51.506;10.272;2023-10-19T11:50:01;8.17;;;7.37;;
50281;SDS011;36176;51.506;10.272;2023-10-19T11:52:28;7.70;;;7.10;;
50281;SDS011;36176;51.506;10.272;2023-10-19T11:54:55;7.33;;;6.73;;
50281;SDS011;36176;51.506;10.272;2023-10-19T11:57:26;7.00;;;6.37;;
50281;SDS011;36176;51.506;10.272;2023-10-19T11:59:53;10.30;;;9.37;;
50281;SDS011;36176;51.506;10.272;2023-10-19T12:02:23;13.97;;;12.57;;
50281;SDS011;36176;51.506;10.272;2023-10-19T12:04:50;8.57;;;7.87;;
50281;SDS011;36176;51.506;10.272;2023-10-19T12:07:17;10.63;;;9.63;;
50281;SDS011;36176;51.506;10.272;2023-10-19T12:09:44;7.97;;;7.27;;
50281;SDS011;36176;51.506;10.272;2023-10-19T12:12:11;8.10;;;7.30;;
50281;SDS011;36176;51.506;10.272;2023-10-19T12:14:38;9.60;;;8.80;;
50281;SDS011;36176;51.506;10.272;2023-10-19T12:17:05;8.43;;;7.70;;
50281;SDS011;36176;51.506;10.272;2023-10-19T12:19:33;7.27;;;6.60;;
50281;SDS011;36176;51.506;10.272;2023-10-19T12:22:00;6.47;;;5.87;;
50281;SDS011;36176;51.506;10.272;2023-10-19T12:24:27;9.93;;;8.50;;
50281;SDS011;36176;51.506;10.272;2023-10-19T12:26:54;7.40;;;6.70;;
50281;SDS011;36176;51.506;10.272;2023-10-19T12:29:22;8.10;;;7.37;;
50281;SDS011;36176;51.506;10.272;2023-10-19T12:31:49;7.97;;;7.27;;
50281;SDS011;36176;51.506;10.272;2023-10-19T12:34:16;9.40;;;8.53;;
50281;SDS011;36176;51.506;10.272;2023-10-19T12:36:44;8.50;;;7.67;;
50281;SDS011;36176;51.506;10.272;2023-10-19T12:39:11;9.47;;;8.57;;
50281;SDS011;36176;51.506;10.272;2023-10-19T12:41:41;9.43;;;8.57;;
50281;SDS011;36176;51.506;10.272;2023-10-19T12:44:08;8.97;;;8.17;;
50281;SDS011;36176;51.506;10.272;2023-10-19T12:46:36;7.07;;;6.37;;
50281;SDS011;36176;51.506;10.272;2023-10-19T12:49:06;8.93;;;8.10;;
50281;SDS011;36176;51.506;10.272;2023-10-19T12:51:33;10.30;;;9.30;;
50281;SDS011;36176;51.506;10.272;2023-10-19T12:54:01;10.70;;;9.77;;
50281;SDS011;36176;51.506;10.272;2023-10-19T12:56:28;8.63;;;7.83;;
50281;SDS011;36176;51.506;10.272;2023-10-19T12:58:56;8.17;;;7.43;;
50281;SDS011;36176;51.506;10.272;2023-10-19T13:01:23;8.13;;;7.27;;
50281;SDS011;36176;51.506;10.272;2023-10-19T13:03:50;9.60;;;7.43;;
50281;SDS011;36176;51.506;10.272;2023-10-19T13:06:17;11.10;;;9.97;;
50281;SDS011;36176;51.506;10.272;2023-10-19T13:08:44;10.23;;;7.80;;
50281;SDS011;36176;51.506;10.272;2023-10-19T13:11:11;9.27;;;8.47;;
50281;SDS011;36176;51.506;10.272;2023-10-19T13:13:44;7.57;;;6.97;;
50281;SDS011;36176;51.506;10.272;2023-10-19T13:16:11;10.40;;;9.30;;
50281;SDS011;36176;51.506;10.272;2023-10-19T13:18:38;10.70;;;9.80;;
50281;SDS011;36176;51.506;10.272;2023-10-19T13:21:06;9.43;;;8.60;;
50281;SDS011;36176;51.506;10.272;2023-10-19T13:23:34;11.07;;;8.90;;
50281;SDS011;36176;51.506;10.272;2023-10-19T13:26:01;12.20;;;11.03;;
50281;SDS011;36176;51.506;10.272;2023-10-19T13:28:28;9.73;;;8.93;;
50281;SDS011;36176;51.506;10.272;2023-10-19T13:30:55;9.90;;;9.00;;
50281;SDS011;36176;51.506;10.272;2023-10-19T13:33:22;13.93;;;12.53;;
50281;SDS011;36176;51.506;10.272;2023-10-19T13:35:49;8.50;;;7.80;;
50281;SDS011;36176;51.506;10.272;2023-10-19T13:38:17;9.23;;;8.43;;
50281;SDS011;36176;51.506;10.272;2023-10-19T13:40:46;10.63;;;9.73;;
50281;SDS011;36176;51.506;10.272;2023-10-19T13:43:13;18.33;;;16.63;;
50281;SDS011;36176;51.506;10.272;2023-10-19T13:45:41;23.87;;;21.47;;
50281;SDS011;36176;51.506;10.272;2023-10-19T13:48:09;18.40;;;16.50;;
50281;SDS011;36176;51.506;10.272;2023-10-19T13:50:40;14.87;;;13.57;;
50281;SDS011;36176;51.506;10.272;2023-10-19T13:53:14;12.77;;;11.68;;
50281;SDS011;36176;51.506;10.272;2023-10-19T13:55:42;12.60;;;11.30;;
50281;SDS011;36176;51.506;10.272;2023-10-19T13:58:10;10.80;;;9.93;;
50281;SDS011;36176;51.506;10.272;2023-10-19T14:00:37;12.90;;;11.60;;
50281;SDS011;36176;51.506;10.272;2023-10-19T14:03:07;13.43;;;12.23;;
50281;SDS011;36176;51.506;10.272;2023-10-19T14:05:38;12.73;;;11.50;;
50281;SDS011;36176;51.506;10.272;2023-10-19T14:08:06;13.00;;;11.83;;
50281;SDS011;36176;51.506;10.272;2023-10-19T14:10:34;15.27;;;13.67;;
50281;SDS011;36176;51.506;10.272;2023-10-19T14:13:02;13.17;;;11.80;;
50281;SDS011;36176;51.506;10.272;2023-10-19T14:15:29;13.47;;;12.37;;
50281;SDS011;36176;51.506;10.272;2023-10-19T14:17:57;16.50;;;14.90;;
50281;SDS011;36176;51.506;10.272;2023-10-19T14:20:25;13.82;;;12.52;;
50281;SDS011;36176;51.506;10.272;2023-10-19T14:22:52;13.05;;;11.85;;
50281;SDS011;36176;51.506;10.272;2023-10-19T14:25:19;11.30;;;10.30;;
50281;SDS011;36176;51.506;10.272;2023-10-19T14:27:48;15.77;;;14.30;;
50281;SDS011;36176;51.506;10.272;2023-10-19T14:30:21;12.98;;;11.65;;
50281;SDS011;36176;51.506;10.272;2023-10-19T14:32:49;12.50;;;11.40;;
50281;SDS011;36176;51.506;10.272;2023-10-19T14:35:17;17.07;;;15.40;;
50281;SDS011;36176;51.506;10.272;2023-10-19T14:37:50;14.70;;;13.20;;